Seattle — WDG2490 — position and weather

sailwx.info

Track history (hours):
 
Tides and Currents Weather Stations Pressure Air Temp Water Temp Dewpoint Dewpoint Depression Visibility Wind Speed Wind Dir Waves Ship Positions

Seattle

Owner: TRUENORTH TRANSPORT LLC, Gig Harbor, WA. More information available from US FCC via Universal Licensing System.

Last reported at 2017-Oct-25 22:40 UTC. Time now 2017-Nov-20 21:24 UTC.
Position N 34°35' W 128°36'.
Warning: this ship's position is 25 days out of date.

Length 153 m; draft 8 m.

Type: Ship. MMSI: 338860000.

Date/timePositionNaut miles runAvg speedWind from/ knotsBaromVisibWave heightAir tempDewpointWater temp
2017-Oct-25 22:40N 34°35' W 128°36'0 2.7
2017-Oct-25 22:29N 34°35' W 128°36'1 2.1
2017-Oct-25 21:49N 34°36' W 128°34'3 2.0
2017-Oct-25 20:27N 34°38' W 128°32'1 1.9
2017-Oct-25 19:59N 34°39' W 128°32'16213.4
2017-Oct-25 07:54N 36°05' W 125°43'814.5
2017-Oct-25 07:19N 36°11' W 125°36'614.4
2017-Oct-25 06:53N 36°15' W 125°30'614.3
2017-Oct-25 06:30N 36°19' W 125°25'714.4
2017-Oct-25 06:00N 36°22' W 125°17'714.1
2017-Oct-25 05:30N 36°26' W 125°10'2313.6
2017-Oct-25 03:51N 36°41' W 124°49'513.7
2017-Oct-25 03:30N 36°44' W 124°44'713.9
2017-Oct-25 03:01N 36°48' W 124°37'714.0
2017-Oct-25 02:30N 36°52' W 124°30'714.3
2017-Oct-25 02:00N 36°56' W 124°22'814.1
2017-Oct-25 01:25N 37°00' W 124°14'613.7
2017-Oct-25 01:00N 37°03' W 124°08'713.4
2017-Oct-25 00:30N 37°06' W 124°00'2814.0
2017-Oct-24 22:29N 37°21' W 123°30'713.6
2017-Oct-24 22:00N 37°25' W 123°23'713.8
2017-Oct-24 21:31N 37°28' W 123°16'714.0
2017-Oct-24 21:00N 37°32' W 123°08'714.0
2017-Oct-24 20:30N 37°36' W 123°01'714.0
2017-Oct-24 20:00N 37°39' W 122°53'714.1
2017-Oct-24 19:30N 37°43' W 122°46'612.2
2017-Oct-24 19:00N 37°46' W 122°39'612.8
2017-Oct-24 18:30N 37°48' W 122°31'612.4
2017-Oct-24 18:00N 37°51' W 122°25'5 9.3
2017-Oct-24 17:30N 37°56' W 122°27'713.7
2017-Oct-24 17:00N 38°02' W 122°23'714.3
2017-Oct-24 16:30N 38°04' W 122°14'611.1
2017-Oct-24 15:59N 38°03' W 122°07'4 8.8
2017-Oct-24 15:30N 38°04' W 122°01'  
2017-Oct-19 03:53N 38°04' W 122°01'0 0.0
2017-Oct-19 03:23N 38°04' W 122°01'0 0.0
2017-Oct-19 02:53N 38°04' W 122°01'0 0.0
2017-Oct-19 02:29N 38°04' W 122°01'0 0.0
2017-Oct-18 20:53N 38°04' W 122°01'0 0.0
2017-Oct-18 18:59N 38°04' W 122°01'0 0.0
2017-Oct-18 18:29N 38°04' W 122°01'0 0.0
2017-Oct-18 17:47N 38°04' W 122°01'0 0.0
2017-Oct-18 16:17N 38°04' W 122°01'0 0.0
2017-Oct-18 15:59N 38°04' W 122°01'0 0.0
2017-Oct-18 15:29N 38°04' W 122°01'0 0.0
2017-Oct-18 14:59N 38°04' W 122°01'0 0.0
2017-Oct-18 13:59N 38°04' W 122°01'0 0.0
2017-Oct-18 13:11N 38°04' W 122°01'0 0.0
2017-Oct-18 12:41N 38°04' W 122°01'0 0.0
2017-Oct-18 12:11N 38°04' W 122°01'0 0.0
2017-Oct-18 11:59N 38°04' W 122°01'0 0.0
2017-Oct-18 11:29N 38°04' W 122°01'0 0.0
2017-Oct-18 10:59N 38°04' W 122°01'0 0.0
2017-Oct-18 10:29N 38°04' W 122°01'0 0.0
2017-Oct-18 09:59N 38°04' W 122°01'0 0.0
2017-Oct-16 17:53N 38°04' W 122°01'  
Track history (hours):
 
Tides and Currents Weather Stations Pressure Air Temp Water Temp Dewpoint Dewpoint Depression Visibility Wind Speed Wind Dir Waves Ship Positions

Seattle

Owner: TRUENORTH TRANSPORT LLC, Gig Harbor, WA. More information available from US FCC via Universal Licensing System.

Last reported at 2017-Oct-25 22:40 UTC. Time now 2017-Nov-20 21:24 UTC.
Position N 34°35' W 128°36'.
Warning: this ship's position is 25 days out of date.

Length 153 m; draft 8 m.

Type: Ship. MMSI: 338860000.

Date/timePositionNaut miles runAvg speedWind from/ knotsBaromVisibWave heightAir tempDewpointWater temp
2017-Oct-25 22:40N 34°35' W 128°36'0 2.7
2017-Oct-25 22:29N 34°35' W 128°36'1 2.1
2017-Oct-25 21:49N 34°36' W 128°34'3 2.0
2017-Oct-25 20:27N 34°38' W 128°32'1 1.9
2017-Oct-25 19:59N 34°39' W 128°32'16213.4
2017-Oct-25 07:54N 36°05' W 125°43'814.5
2017-Oct-25 07:19N 36°11' W 125°36'614.4
2017-Oct-25 06:53N 36°15' W 125°30'614.3
2017-Oct-25 06:30N 36°19' W 125°25'714.4
2017-Oct-25 06:00N 36°22' W 125°17'714.1
2017-Oct-25 05:30N 36°26' W 125°10'2313.6
2017-Oct-25 03:51N 36°41' W 124°49'513.7
2017-Oct-25 03:30N 36°44' W 124°44'713.9
2017-Oct-25 03:01N 36°48' W 124°37'714.0
2017-Oct-25 02:30N 36°52' W 124°30'714.3
2017-Oct-25 02:00N 36°56' W 124°22'814.1
2017-Oct-25 01:25N 37°00' W 124°14'613.7
2017-Oct-25 01:00N 37°03' W 124°08'713.4
2017-Oct-25 00:30N 37°06' W 124°00'2814.0
2017-Oct-24 22:29N 37°21' W 123°30'713.6
2017-Oct-24 22:00N 37°25' W 123°23'713.8
2017-Oct-24 21:31N 37°28' W 123°16'714.0
2017-Oct-24 21:00N 37°32' W 123°08'714.0
2017-Oct-24 20:30N 37°36' W 123°01'714.0
2017-Oct-24 20:00N 37°39' W 122°53'714.1
2017-Oct-24 19:30N 37°43' W 122°46'612.2
2017-Oct-24 19:00N 37°46' W 122°39'612.8
2017-Oct-24 18:30N 37°48' W 122°31'612.4
2017-Oct-24 18:00N 37°51' W 122°25'5 9.3
2017-Oct-24 17:30N 37°56' W 122°27'713.7
2017-Oct-24 17:00N 38°02' W 122°23'714.3
2017-Oct-24 16:30N 38°04' W 122°14'611.1
2017-Oct-24 15:59N 38°03' W 122°07'4 8.8
2017-Oct-24 15:30N 38°04' W 122°01'  
2017-Oct-19 03:53N 38°04' W 122°01'0 0.0
2017-Oct-19 03:23N 38°04' W 122°01'0 0.0
2017-Oct-19 02:53N 38°04' W 122°01'0 0.0
2017-Oct-19 02:29N 38°04' W 122°01'0 0.0
2017-Oct-18 20:53N 38°04' W 122°01'0 0.0
2017-Oct-18 18:59N 38°04' W 122°01'0 0.0
2017-Oct-18 18:29N 38°04' W 122°01'0 0.0
2017-Oct-18 17:47N 38°04' W 122°01'0 0.0
2017-Oct-18 16:17N 38°04' W 122°01'0 0.0
2017-Oct-18 15:59N 38°04' W 122°01'0 0.0
2017-Oct-18 15:29N 38°04' W 122°01'0 0.0
2017-Oct-18 14:59N 38°04' W 122°01'0 0.0
2017-Oct-18 13:59N 38°04' W 122°01'0 0.0
2017-Oct-18 13:11N 38°04' W 122°01'0 0.0
2017-Oct-18 12:41N 38°04' W 122°01'0 0.0
2017-Oct-18 12:11N 38°04' W 122°01'0 0.0
2017-Oct-18 11:59N 38°04' W 122°01'0 0.0
2017-Oct-18 11:29N 38°04' W 122°01'0 0.0
2017-Oct-18 10:59N 38°04' W 122°01'0 0.0
2017-Oct-18 10:29N 38°04' W 122°01'0 0.0
2017-Oct-18 09:59N 38°04' W 122°01'0 0.0
2017-Oct-16 17:53N 38°04' W 122°01'  

Dump ship's entire track history